New York, NY

05:48 EDT dnia 26-kwiecień-2017 (GMT -0400)
Chelsea, West 28th St. | | Change Station

Wysokość 110 ft 40.75 °N, 73.99 °W | Updated 9 seconds ago

Light Rain
lekki deszcz
54.3 ° F
Odczuwalna 54.3 ° F
Płn.
0.0
Wiatr zmienny Wiatr od zachodni
Gusts 0.0 mph

Dziś
Wysoka -- | Niska -- ° F
--% Prawdop. opadów
Wczoraj
Wysoka -- | Niska -- ° F
Precip. -- cali
Ciśnienie 29.78 cali
Widzialność 2.5 mil
chmury przewaga chmur 500 ft
pochmurno 1000 ft
Punkt rosy 54 ° F
Wilgotność 98%
Opady deszczu 0.13 cali
grubość pokrywy śnieżnej Niedostępne.
6:00 AM 7:47 PM
Zmniejszający się sierp Księżyca, 0% visible
SPECI KNYC 260946Z 05005KT 2 1/2SM -RA BR BKN005 OVC010 12/12 A2978 RMK AO2 P0011 $
Ciśnienie 29.78 cali
Widzialność 2.5 mil
chmury przewaga chmur 500 ft
pochmurno 1000 ft
Punkt rosy 54 ° F
Wilgotność 98%
Opady deszczu 0.13 cali
grubość pokrywy śnieżnej Niedostępne.
6:00 AM 7:47 PM
Zmniejszający się sierp Księżyca, 0% visible
SPECI KNYC 260946Z 05005KT 2 1/2SM -RA BR BKN005 OVC010 12/12 A2978 RMK AO2 P0011 $

Get Severe Weather Alerts

Thanks for signing up!

Be on the lookout for a verification email in your inbox.

You'll start receiving the daily forecast at 8 AM.

×

10-Day Weather Forecast

Almanac

Astronomia

Apr. 26, 2017 Wschód Zachów
Aktualny czas
Zmierzch cywilny
Zmierzch żeglarski
świt/zmierzch astronomiczny
Księżyc
całkowite oświetlenie
Długość dnia
Tomorrow will be .
, % of the Moon is Illuminated

Dzisiejsze ekstrema

State Highs State Lows

Community

WunderPhotos

WunderBlog® & News

Nearby

Jakość powietrza

  Jakość powietrza czynnik AQ Zanieczyszczenie
Not available.

Głębokość pokrywy śnieżnej

Station Depth n.p.m.

Aktywność sejsmiczna

Miejscowość Distance Mag. Time & Date
Minimum magnitude displayed is 2.5.

Temperatury wody na wybrzeżu

Miejsce Temperatura

Stations

Najbliższa stacja pogodowa

Lokalizacja stacji Temp. czynnik chłodzący wiatru Punkt rosy Wilgotność Wiatr Precip. Wysokość Uaktualniono Typ
                   

Watches & Warnings

There are currently no watches in effect.